Time;durP1;ratioP1;P1;durP2;ratioP2;P2;SDS_P1;SDS_P2;PMS_P1;PMS_P2;Temp;Humidity;BMP_temperature;BMP_pressure;BME280_temperature;BME280_humidity;BME280_pressure;Samples;Min_cycle;Max_cycle;Signal;HPM_P1;HPM_P2
2023/01/31 00:01:30;;;;;;;0.20;0.20;;;7.90;66.70;;;;;;5078357;28;20024;-86
2023/01/31 00:04:02;;;;;;;0.30;0.30;;;7.90;67.80;;;;;;5077355;28;20035;-88
2023/01/31 00:06:30;;;;;;;0.30;0.30;;;7.80;67.60;;;;;;5077318;28;20371;-88
2023/01/31 00:08:58;;;;;;;0.30;0.30;;;7.50;69.60;;;;;;5097400;28;20027;-86
2023/01/31 00:11:25;;;;;;;0.30;0.30;;;7.50;70.60;;;;;;5088356;28;20354;-82
2023/01/31 00:13:52;;;;;;;0.30;0.30;;;7.70;69.50;;;;;;5077247;28;20402;-81
2023/01/31 00:16:19;;;;;;;0.30;0.30;;;7.60;69.60;;;;;;5077434;28;20447;-87
2023/01/31 00:18:45;;;;;;;0.20;0.20;;;7.60;70.30;;;;;;5090985;28;20043;-91
2023/01/31 00:21:13;;;;;;;0.30;0.30;;;7.70;70.30;;;;;;5097492;28;20035;-87
2023/01/31 00:23:41;;;;;;;0.20;0.20;;;7.80;69.60;;;;;;5082154;28;20040;-88
2023/01/31 00:26:24;;;;;;;0.30;0.30;;;7.60;69.30;;;;;;5077466;28;20023;-83
2023/01/31 00:28:52;;;;;;;0.30;0.30;;;7.60;69.90;;;;;;5081413;28;20016;-87
2023/01/31 00:31:19;;;;;;;0.30;0.30;;;7.60;70.40;;;;;;5097542;28;20386;-84
2023/01/31 00:33:46;;;;;;;0.30;0.30;;;7.50;70.60;;;;;;5096146;28;20110;-84
2023/01/31 00:36:16;;;;;;;0.30;0.30;;;7.50;70.10;;;;;;5097010;28;20059;-81
2023/01/31 00:38:43;;;;;;;0.30;0.30;;;7.60;70.60;;;;;;5094737;28;20034;-85
2023/01/31 00:41:09;;;;;;;0.30;0.30;;;7.50;70.10;;;;;;5078890;28;20036;-88
2023/01/31 00:43:36;;;;;;;0.20;0.20;;;7.60;70.30;;;;;;5075878;28;20647;-86
2023/01/31 00:46:02;;;;;;;0.30;0.30;;;8.10;69.00;;;;;;5087374;28;20027;-88
2023/01/31 00:48:28;;;;;;;0.30;0.30;;;8.30;67.80;;;;;;5097400;28;20089;-87
2023/01/31 00:50:53;;;;;;;0.30;0.30;;;8.00;68.00;;;;;;5093410;28;20023;-89
2023/01/31 00:53:22;;;;;;;0.35;0.35;;;8.00;67.90;;;;;;5097082;28;20027;-86
2023/01/31 00:56:01;;;;;;;0.32;0.32;;;8.20;68.00;;;;;;5086851;28;20054;-84
2023/01/31 00:58:26;;;;;;;0.20;0.20;;;8.40;67.50;;;;;;5076663;28;20036;-88
2023/01/31 01:00:53;;;;;;;0.25;0.25;;;8.50;66.30;;;;;;5079794;28;20020;-85
2023/01/31 01:03:18;;;;;;;0.28;0.28;;;8.50;66.40;;;;;;5076333;28;20040;-85
2023/01/31 01:05:44;;;;;;;0.30;0.30;;;8.70;65.70;;;;;;5076349;28;20033;-88
2023/01/31 01:08:10;;;;;;;0.30;0.30;;;8.80;64.80;;;;;;5076366;28;20028;-89
2023/01/31 01:10:36;;;;;;;0.30;0.30;;;8.90;64.50;;;;;;5076267;28;20043;-85
2023/01/31 01:13:04;;;;;;;0.30;0.30;;;8.80;64.60;;;;;;5108706;28;20386;-86
2023/01/31 01:15:30;;;;;;;0.40;0.40;;;8.50;64.70;;;;;;5076220;28;20054;-86
2023/01/31 01:17:56;;;;;;;0.30;0.30;;;8.10;65.80;;;;;;5078964;28;20028;-87
2023/01/31 01:20:22;;;;;;;0.30;0.30;;;8.10;66.40;;;;;;5076002;28;20027;-87
2023/01/31 01:22:47;;;;;;;0.30;0.30;;;8.10;65.90;;;;;;5078720;28;20051;-86
2023/01/31 01:25:13;;;;;;;0.30;0.30;;;8.20;65.80;;;;;;5076004;28;20020;-85
2023/01/31 01:27:39;;;;;;;0.30;0.30;;;8.20;66.00;;;;;;5081285;28;20042;-86
2023/01/31 01:30:05;;;;;;;0.30;0.30;;;8.30;65.50;;;;;;5095654;28;20091;-86
2023/01/31 01:32:31;;;;;;;0.20;0.20;;;8.40;65.10;;;;;;5084011;28;20028;-90
2023/01/31 01:34:56;;;;;;;0.40;0.40;;;8.50;64.10;;;;;;5076220;28;20051;-89
2023/01/31 01:37:23;;;;;;;0.30;0.30;;;8.50;64.20;;;;;;5076252;28;20028;-87
2023/01/31 01:39:49;;;;;;;0.30;0.30;;;8.30;65.00;;;;;;5077588;28;20024;-88
2023/01/31 01:42:16;;;;;;;0.30;0.30;;;8.50;64.20;;;;;;5096445;28;20031;-85
2023/01/31 01:45:00;;;;;;;0.30;0.30;;;8.60;63.40;;;;;;5080372;28;20024;-87
2023/01/31 01:47:50;;;;;;;0.30;0.30;;;8.30;63.90;;;;;;5075764;28;20059;-85
2023/01/31 01:50:34;;;;;;;0.40;0.40;;;8.30;64.40;;;;;;5078904;28;20020;-85
2023/01/31 01:53:16;;;;;;;0.20;0.20;;;8.40;64.00;;;;;;5075690;28;20036;-86
2023/01/31 01:55:48;;;;;;;0.30;0.30;;;8.60;64.50;;;;;;5078978;28;20032;-82
2023/01/31 01:58:22;;;;;;;0.30;0.30;;;9.00;63.20;;;;;;5079588;28;20386;-86
2023/01/31 02:00:49;;;;;;;0.30;0.30;;;9.10;62.50;;;;;;5080057;28;20028;-87
2023/01/31 02:03:15;;;;;;;0.30;0.30;;;9.30;62.40;;;;;;5096534;28;20423;-82
2023/01/31 02:05:44;;;;;;;0.32;0.32;;;9.50;61.40;;;;;;5088454;28;20036;-85
2023/01/31 02:08:11;;;;;;;0.28;0.28;;;9.50;61.50;;;;;;5079476;28;20028;-86
2023/01/31 02:10:50;;;;;;;0.28;0.28;;;9.50;61.20;;;;;;5081843;28;20398;-85
2023/01/31 02:13:17;;;;;;;0.30;0.30;;;9.40;61.60;;;;;;5079455;28;20028;-84
2023/01/31 02:15:43;;;;;;;0.40;0.40;;;9.30;62.00;;;;;;5082098;28;20032;-86
2023/01/31 02:18:09;;;;;;;0.30;0.30;;;9.50;61.30;;;;;;5099858;28;20028;-89
2023/01/31 02:21:01;;;;;;;0.30;0.30;;;9.60;60.90;;;;;;5097641;28;20131;-85
2023/01/31 02:23:56;;;;;;;0.30;0.30;;;9.40;61.60;;;;;;5079358;28;20048;-85
2023/01/31 02:26:43;;;;;;;0.30;0.30;;;9.20;62.20;;;;;;4998231;28;20157;-86
2023/01/31 02:29:51;;;;;;;0.30;0.30;;;9.00;62.60;;;;;;4999065;28;20034;-88
2023/01/31 02:32:34;;;;;;;0.30;0.30;;;9.40;62.30;;;;;;4985475;28;20112;-86
2023/01/31 02:35:12;;;;;;;0.20;0.20;;;9.60;61.70;;;;;;4995792;28;20546;-88
2023/01/31 02:37:46;;;;;;;0.20;0.20;;;9.50;61.40;;;;;;4996484;28;20121;-83
2023/01/31 02:42:41;;;;;;;0.32;0.32;;;9.60;60.50;;;;;;5068030;28;20449;-85
2023/01/31 02:45:28;;;;;;;0.30;0.30;;;9.50;61.10;;;;;;5051137;28;20044;-85
2023/01/31 02:48:03;;;;;;;0.32;0.32;;;9.30;61.50;;;;;;5039799;28;20029;-85
2023/01/31 02:51:11;;;;;;;0.20;0.20;;;9.20;61.60;;;;;;5050118;28;20022;-86
2023/01/31 02:54:02;;;;;;;0.30;0.30;;;9.20;61.70;;;;;;5028645;28;20080;-83
2023/01/31 02:56:32;;;;;;;0.35;0.35;;;9.20;62.10;;;;;;5029241;28;20040;-83
2023/01/31 02:59:09;;;;;;;0.30;0.30;;;9.10;61.70;;;;;;5044813;28;20459;-83
2023/01/31 03:01:45;;;;;;;0.30;0.30;;;8.70;62.60;;;;;;5029244;28;20042;-84
2023/01/31 03:04:13;;;;;;;0.30;0.30;;;8.40;62.50;;;;;;5012932;28;20125;-88
2023/01/31 03:07:05;;;;;;;0.28;0.28;;;8.40;62.70;;;;;;5029072;28;20030;-84
2023/01/31 03:09:36;;;;;;;0.30;0.30;;;8.40;62.80;;;;;;5045070;28;20026;-90
2023/01/31 03:12:05;;;;;;;0.32;0.32;;;8.20;63.10;;;;;;5012441;28;20100;-83
2023/01/31 03:14:34;;;;;;;0.30;0.30;;;8.30;63.10;;;;;;5028393;28;20037;-87
2023/01/31 03:17:31;;;;;;;0.30;0.30;;;8.30;63.30;;;;;;5026856;28;20490;-85
2023/01/31 03:20:08;;;;;;;0.30;0.30;;;8.50;63.00;;;;;;5011784;28;20057;-83
2023/01/31 03:22:40;;;;;;;0.30;0.30;;;8.80;61.90;;;;;;5028838;28;20065;-84
2023/01/31 03:25:10;;;;;;;0.30;0.30;;;8.80;61.80;;;;;;5011400;28;20022;-83
2023/01/31 03:27:39;;;;;;;0.30;0.30;;;8.80;61.40;;;;;;5029634;28;20038;-85
2023/01/31 03:30:11;;;;;;;0.30;0.30;;;8.90;61.80;;;;;;5047100;28;20028;-86
2023/01/31 03:32:44;;;;;;;0.30;0.30;;;9.10;60.70;;;;;;5048441;28;20025;-90
2023/01/31 03:35:10;;;;;;;0.40;0.40;;;9.10;60.90;;;;;;5049064;28;20041;-86
2023/01/31 03:37:54;;;;;;;0.20;0.20;;;9.30;60.40;;;;;;5035873;28;20030;-86
2023/01/31 03:40:33;;;;;;;0.20;0.20;;;9.30;59.80;;;;;;5033890;28;20179;-85
2023/01/31 03:43:13;;;;;;;0.30;0.30;;;9.30;60.20;;;;;;5048716;28;20405;-85
2023/01/31 03:45:47;;;;;;;0.30;0.30;;;9.30;60.00;;;;;;5050501;28;20021;-86
2023/01/31 03:48:17;;;;;;;0.30;0.30;;;9.20;60.10;;;;;;5048186;28;20040;-85
2023/01/31 03:51:06;;;;;;;0.30;0.30;;;9.40;60.20;;;;;;5048890;28;20060;-85
2023/01/31 03:53:36;;;;;;;0.20;0.20;;;9.10;60.20;;;;;;5035563;28;20033;-85
2023/01/31 03:56:17;;;;;;;0.30;0.30;;;9.00;60.30;;;;;;5035542;28;20064;-85
2023/01/31 03:58:50;;;;;;;0.20;0.20;;;9.20;59.80;;;;;;5034811;28;20126;-86
2023/01/31 04:01:18;;;;;;;0.20;0.20;;;9.20;59.90;;;;;;5036638;28;20550;-84
2023/01/31 04:03:54;;;;;;;0.30;0.30;;;9.10;60.10;;;;;;5028428;28;20171;-85
2023/01/31 04:06:20;;;;;;;0.30;0.30;;;9.00;60.00;;;;;;5016669;28;20041;-86
2023/01/31 04:08:46;;;;;;;0.30;0.30;;;8.90;60.70;;;;;;5024210;28;20029;-83
2023/01/31 04:11:14;;;;;;;0.30;0.30;;;9.00;60.80;;;;;;5036492;28;20029;-85
2023/01/31 04:13:41;;;;;;;0.30;0.30;;;8.90;60.10;;;;;;5035677;28;20028;-88
2023/01/31 04:16:07;;;;;;;0.38;0.38;;;8.90;60.80;;;;;;5036525;28;20468;-84
2023/01/31 04:18:33;;;;;;;0.30;0.30;;;9.00;60.30;;;;;;5035177;28;20025;-86
2023/01/31 04:20:59;;;;;;;0.30;0.30;;;8.80;61.20;;;;;;5034249;28;20040;-85
2023/01/31 04:23:25;;;;;;;0.30;0.30;;;8.80;61.40;;;;;;5036340;28;20018;-87
2023/01/31 04:25:54;;;;;;;0.30;0.30;;;9.00;61.00;;;;;;5034358;28;20559;-84
2023/01/31 04:28:20;;;;;;;0.30;0.30;;;9.30;60.60;;;;;;5035311;28;20108;-84
2023/01/31 04:30:54;;;;;;;0.30;0.30;;;9.30;60.20;;;;;;5034429;28;20495;-85
2023/01/31 04:33:20;;;;;;;0.40;0.40;;;9.60;59.50;;;;;;5034559;28;20057;-87
2023/01/31 04:35:46;;;;;;;0.30;0.30;;;9.50;60.00;;;;;;5034905;28;20057;-88
2023/01/31 04:38:12;;;;;;;0.30;0.30;;;9.50;59.80;;;;;;5035920;28;20531;-85
2023/01/31 04:40:37;;;;;;;0.28;0.28;;;9.30;60.00;;;;;;5034449;28;20049;-85
2023/01/31 04:43:03;;;;;;;0.38;0.38;;;9.40;60.10;;;;;;5034728;28;20384;-85
2023/01/31 04:45:29;;;;;;;0.30;0.30;;;9.40;60.50;;;;;;5033901;28;20043;-82
2023/01/31 04:47:54;;;;;;;0.20;0.20;;;9.40;60.50;;;;;;5035249;28;20036;-85
2023/01/31 04:50:20;;;;;;;0.30;0.30;;;9.40;60.40;;;;;;5035903;28;20028;-84
2023/01/31 04:52:49;;;;;;;0.30;0.30;;;9.40;61.00;;;;;;5033933;28;20139;-82
2023/01/31 04:55:15;;;;;;;0.30;0.30;;;9.40;60.50;;;;;;5034681;28;20055;-89
2023/01/31 04:57:41;;;;;;;0.30;0.30;;;9.20;61.70;;;;;;5033439;28;20028;-85
2023/01/31 05:00:07;;;;;;;0.30;0.30;;;8.90;62.70;;;;;;5034405;28;20112;-85
2023/01/31 05:02:33;;;;;;;0.30;0.30;;;9.20;62.80;;;;;;5033772;28;20120;-85
2023/01/31 05:04:59;;;;;;;0.30;0.30;;;9.40;62.40;;;;;;5034297;28;20036;-85
2023/01/31 05:07:24;;;;;;;0.28;0.28;;;9.50;62.30;;;;;;5032646;28;20064;-86
2023/01/31 05:09:50;;;;;;;0.30;0.30;;;9.40;62.70;;;;;;5034125;28;20030;-84
2023/01/31 05:12:16;;;;;;;0.20;0.20;;;8.80;63.80;;;;;;5032980;28;20025;-87
2023/01/31 05:14:41;;;;;;;0.30;0.30;;;8.90;65.30;;;;;;5034244;28;20029;-90
2023/01/31 05:17:07;;;;;;;0.25;0.25;;;9.10;64.70;;;;;;5034205;28;20028;-87
2023/01/31 05:19:33;;;;;;;0.25;0.25;;;9.20;65.00;;;;;;5032965;28;20120;-86
2023/01/31 05:21:59;;;;;;;0.20;0.20;;;9.20;64.50;;;;;;5033638;28;20044;-87
2023/01/31 05:24:27;;;;;;;0.28;0.28;;;9.30;64.90;;;;;;5032301;28;20048;-89
2023/01/31 05:26:57;;;;;;;0.30;0.30;;;9.40;63.10;;;;;;5032799;28;20069;-87
2023/01/31 05:29:26;;;;;;;0.20;0.20;;;9.50;64.20;;;;;;5033929;28;20476;-86
2023/01/31 05:31:56;;;;;;;0.30;0.30;;;9.80;62.80;;;;;;5032157;28;20277;-85
2023/01/31 05:34:29;;;;;;;0.30;0.30;;;9.80;62.60;;;;;;5034769;28;20022;-87
2023/01/31 05:36:55;;;;;;;0.20;0.20;;;9.90;62.90;;;;;;5033975;28;20101;-87
2023/01/31 05:39:21;;;;;;;0.30;0.30;;;9.40;62.90;;;;;;5033428;28;20037;-86
2023/01/31 05:41:46;;;;;;;0.30;0.30;;;8.90;64.80;;;;;;5032611;28;20059;-86
2023/01/31 05:44:13;;;;;;;0.30;0.30;;;9.00;64.80;;;;;;5033503;28;20025;-85
2023/01/31 05:46:39;;;;;;;0.40;0.40;;;9.00;64.50;;;;;;5032519;28;20037;-84
2023/01/31 05:49:05;;;;;;;0.30;0.30;;;8.90;64.50;;;;;;5033399;28;20119;-83
2023/01/31 05:51:31;;;;;;;0.38;0.38;;;8.70;63.90;;;;;;5033670;28;20484;-87
2023/01/31 05:53:56;;;;;;;0.30;0.30;;;8.50;65.00;;;;;;5032518;28;20111;-86
2023/01/31 05:56:22;;;;;;;0.20;0.20;;;8.40;65.50;;;;;;5033767;28;20065;-85
2023/01/31 05:58:49;;;;;;;0.30;0.30;;;8.50;64.60;;;;;;5032652;28;20357;-80
2023/01/31 06:01:19;;;;;;;0.30;0.30;;;8.40;64.80;;;;;;5032469;28;20041;-85
2023/01/31 06:03:44;;;;;;;0.30;0.30;;;8.80;64.30;;;;;;5033419;28;20026;-85
2023/01/31 06:06:10;;;;;;;0.30;0.30;;;8.80;63.80;;;;;;5031500;28;20048;-84
2023/01/31 06:08:36;;;;;;;0.30;0.30;;;9.20;62.90;;;;;;5033543;28;20055;-86
2023/01/31 06:11:03;;;;;;;0.30;0.30;;;9.50;62.20;;;;;;5032953;28;20428;-85
2023/01/31 06:13:30;;;;;;;0.20;0.20;;;9.80;60.70;;;;;;5032888;28;20116;-85
2023/01/31 06:15:55;;;;;;;0.25;0.25;;;9.60;60.60;;;;;;5032767;28;20025;-85
2023/01/31 06:18:21;;;;;;;0.30;0.30;;;9.20;61.80;;;;;;5033728;28;20026;-84
2023/01/31 06:20:47;;;;;;;0.30;0.30;;;9.30;62.00;;;;;;5034080;28;20459;-85
2023/01/31 06:23:13;;;;;;;0.30;0.30;;;9.40;61.90;;;;;;5033543;28;20104;-86
2023/01/31 06:25:39;;;;;;;0.30;0.30;;;9.40;60.40;;;;;;5032741;28;20534;-84
2023/01/31 06:28:04;;;;;;;0.25;0.25;;;9.50;60.90;;;;;;5030987;28;20036;-85
2023/01/31 06:30:30;;;;;;;0.20;0.20;;;9.50;60.40;;;;;;5032867;28;20030;-87
2023/01/31 06:32:59;;;;;;;0.30;0.30;;;9.00;61.00;;;;;;5032680;28;20186;-84
2023/01/31 06:35:25;;;;;;;0.30;0.30;;;9.00;61.70;;;;;;5033600;28;20556;-84
2023/01/31 06:37:50;;;;;;;0.30;0.30;;;8.60;62.40;;;;;;5032417;28;20033;-84
2023/01/31 06:40:16;;;;;;;0.30;0.30;;;8.40;62.40;;;;;;5013332;28;20099;-82
2023/01/31 06:42:42;;;;;;;0.38;0.38;;;8.30;62.60;;;;;;5014238;28;20049;-85
2023/01/31 06:45:08;;;;;;;0.20;0.20;;;8.40;63.10;;;;;;5027286;28;20499;-84
2023/01/31 06:47:34;;;;;;;0.30;0.30;;;8.40;62.50;;;;;;5033432;28;20060;-84
2023/01/31 06:50:00;;;;;;;0.30;0.30;;;8.50;62.40;;;;;;5021722;28;20129;-85
2023/01/31 06:52:25;;;;;;;0.20;0.20;;;8.30;62.80;;;;;;5021253;28;20033;-84
2023/01/31 06:54:51;;;;;;;0.20;0.20;;;8.40;62.40;;;;;;5033029;28;20506;-86
2023/01/31 06:57:17;;;;;;;0.30;0.30;;;8.40;61.80;;;;;;5032641;28;20028;-83
2023/01/31 06:59:42;;;;;;;0.20;0.20;;;8.30;62.00;;;;;;5033060;28;20026;-86
2023/01/31 07:02:10;;;;;;;0.30;0.30;;;8.00;62.90;;;;;;5031964;28;20037;-85
2023/01/31 07:04:36;;;;;;;0.30;0.30;;;7.90;62.70;;;;;;5035027;28;20028;-87
2023/01/31 07:07:01;;;;;;;0.30;0.30;;;7.90;63.40;;;;;;5022850;28;20025;-86
2023/01/31 07:09:27;;;;;;;0.30;0.30;;;8.00;62.60;;;;;;5032430;28;20033;-83
2023/01/31 07:11:53;;;;;;;0.30;0.30;;;7.90;62.10;;;;;;5033723;28;20435;-88
2023/01/31 07:14:19;;;;;;;0.30;0.30;;;8.00;62.80;;;;;;5032209;28;20021;-84
2023/01/31 07:16:44;;;;;;;0.30;0.30;;;8.10;62.70;;;;;;5032263;28;20489;-85
2023/01/31 07:19:10;;;;;;;0.30;0.30;;;8.40;61.70;;;;;;5032488;28;20111;-80
2023/01/31 07:21:37;;;;;;;0.20;0.20;;;8.30;61.20;;;;;;5033812;28;20499;-84
2023/01/31 07:24:03;;;;;;;0.30;0.30;;;8.10;61.90;;;;;;5042953;28;20029;-87
2023/01/31 07:26:29;;;;;;;0.30;0.30;;;8.30;62.00;;;;;;5042352;28;20030;-85
2023/01/31 07:28:55;;;;;;;0.30;0.30;;;8.30;61.70;;;;;;5036047;28;20021;-86
2023/01/31 07:31:21;;;;;;;0.30;0.30;;;8.30;61.10;;;;;;5036139;28;20391;-87
2023/01/31 07:33:46;;;;;;;0.20;0.20;;;8.50;60.80;;;;;;5037060;28;20131;-85
2023/01/31 07:36:14;;;;;;;0.30;0.30;;;8.30;61.00;;;;;;5036339;28;20033;-81
2023/01/31 07:38:41;;;;;;;0.30;0.30;;;8.60;60.50;;;;;;5039666;28;20058;-86
2023/01/31 07:41:08;;;;;;;0.30;0.30;;;8.40;60.50;;;;;;5022790;28;20049;-81
2023/01/31 07:43:33;;;;;;;0.30;0.30;;;8.50;60.60;;;;;;5031115;28;20025;-88
2023/01/31 07:45:59;;;;;;;0.30;0.30;;;8.70;59.80;;;;;;5028278;28;20109;-85
2023/01/31 07:48:26;;;;;;;0.30;0.30;;;8.80;59.70;;;;;;5015520;28;20034;-86
2023/01/31 07:51:01;;;;;;;0.20;0.20;;;8.70;60.10;;;;;;4838772;28;10000519;-85
2023/01/31 07:53:29;;;;;;;0.30;0.30;;;8.80;59.60;;;;;;5025301;28;20220;-87
2023/01/31 07:56:07;;;;;;;0.30;0.30;;;8.80;59.30;;;;;;5034538;28;20029;-84
2023/01/31 07:58:34;;;;;;;0.30;0.30;;;9.40;58.70;;;;;;5020734;28;20480;-87
2023/01/31 08:03:45;;;;;;;0.30;0.30;;;9.90;57.60;;;;;;5034878;28;20059;-82
2023/01/31 08:06:12;;;;;;;0.30;0.30;;;9.90;57.40;;;;;;5034916;28;20476;-89
2023/01/31 08:08:39;;;;;;;0.30;0.30;;;10.00;57.40;;;;;;5035246;28;20059;-87
2023/01/31 08:11:05;;;;;;;0.30;0.30;;;10.10;57.00;;;;;;5034756;28;20445;-86
2023/01/31 08:13:32;;;;;;;0.30;0.30;;;10.20;56.80;;;;;;5035007;28;20032;-86
2023/01/31 08:15:58;;;;;;;0.20;0.20;;;10.50;56.60;;;;;;5035525;28;20021;-87
2023/01/31 08:18:25;;;;;;;0.30;0.30;;;10.70;56.10;;;;;;5034678;28;20064;-86
2023/01/31 08:20:50;;;;;;;0.30;0.30;;;10.40;56.20;;;;;;5035061;28;20034;-85
2023/01/31 08:23:16;;;;;;;0.30;0.30;;;10.40;56.50;;;;;;5034474;28;20033;-86
2023/01/31 08:25:42;;;;;;;0.30;0.30;;;10.50;56.20;;;;;;5033123;28;20045;-86
2023/01/31 08:28:08;;;;;;;0.30;0.30;;;11.00;55.70;;;;;;5034614;28;20029;-85
2023/01/31 08:30:34;;;;;;;0.30;0.30;;;11.50;54.50;;;;;;5035033;28;20057;-86
2023/01/31 08:33:00;;;;;;;0.30;0.30;;;11.60;54.30;;;;;;5035019;28;20113;-86
2023/01/31 08:35:26;;;;;;;0.20;0.20;;;11.60;53.90;;;;;;5034858;28;20064;-85
2023/01/31 08:38:13;;;;;;;0.30;0.30;;;11.50;53.60;;;;;;5065742;28;20388;-85
2023/01/31 08:40:39;;;;;;;0.30;0.30;;;11.20;54.60;;;;;;5063426;28;20480;-84
2023/01/31 08:43:05;;;;;;;0.20;0.20;;;11.40;54.20;;;;;;5050045;28;20025;-83
2023/01/31 08:45:31;;;;;;;0.30;0.30;;;11.50;54.00;;;;;;5049745;28;20021;-86
2023/01/31 08:47:58;;;;;;;0.30;0.30;;;11.80;53.80;;;;;;5045343;28;20034;-82
2023/01/31 08:50:27;;;;;;;0.25;0.25;;;11.70;53.50;;;;;;5048526;28;20033;-85
2023/01/31 08:52:58;;;;;;;0.40;0.40;;;12.20;53.20;;;;;;5050062;28;20438;-86
2023/01/31 08:55:25;;;;;;;0.40;0.40;;;12.30;52.40;;;;;;5049693;28;20400;-86
2023/01/31 08:57:52;;;;;;;0.40;0.40;;;12.20;53.30;;;;;;5049717;28;20381;-86
2023/01/31 09:00:18;;;;;;;0.32;0.32;;;12.90;52.40;;;;;;5049867;28;20025;-89
2023/01/31 09:02:49;;;;;;;0.30;0.30;;;13.30;51.30;;;;;;5049641;28;20175;-88
2023/01/31 09:05:15;;;;;;;0.30;0.30;;;12.80;51.70;;;;;;5049408;28;20017;-88
2023/01/31 09:07:40;;;;;;;0.30;0.30;;;13.10;51.70;;;;;;5049569;28;20029;-86
2023/01/31 09:10:10;;;;;;;0.20;0.20;;;13.10;51.30;;;;;;5048364;28;20379;-86
2023/01/31 09:12:35;;;;;;;0.20;0.20;;;13.00;51.90;;;;;;5047805;28;20032;-85
2023/01/31 09:15:02;;;;;;;0.38;0.38;;;12.50;51.70;;;;;;5047397;28;20059;-86
2023/01/31 09:17:28;;;;;;;0.20;0.20;;;11.80;53.10;;;;;;5048168;28;20041;-87
2023/01/31 09:19:55;;;;;;;0.20;0.20;;;12.10;53.40;;;;;;5048973;28;20060;-87
2023/01/31 09:22:21;;;;;;;0.20;0.20;;;12.60;52.90;;;;;;5049011;28;20415;-87
2023/01/31 09:24:47;;;;;;;0.20;0.20;;;12.90;52.00;;;;;;5049073;28;20072;-86
2023/01/31 09:27:13;;;;;;;0.25;0.25;;;12.80;51.40;;;;;;5048952;28;20056;-87
2023/01/31 09:29:39;;;;;;;0.30;0.30;;;12.10;52.80;;;;;;5049236;28;20104;-85
2023/01/31 09:32:04;;;;;;;0.25;0.25;;;11.60;53.20;;;;;;5048975;28;20040;-87
2023/01/31 09:34:30;;;;;;;0.20;0.20;;;11.70;53.40;;;;;;5044438;28;20026;-88
2023/01/31 09:36:56;;;;;;;0.30;0.30;;;11.80;53.60;;;;;;5028856;28;20465;-87
2023/01/31 09:39:23;;;;;;;0.22;0.22;;;12.10;53.50;;;;;;5028881;28;20017;-87
2023/01/31 09:42:21;;;;;;;0.28;0.28;;;11.80;53.50;;;;;;5029030;28;20033;-87
2023/01/31 09:44:58;;;;;;;0.20;0.20;;;11.70;54.10;;;;;;5029003;28;20039;-86
2023/01/31 09:47:47;;;;;;;0.25;0.25;;;11.70;54.40;;;;;;5028130;28;20400;-85
2023/01/31 09:50:36;;;;;;;0.20;0.20;;;11.10;54.40;;;;;;5015485;28;20029;-85
2023/01/31 09:53:02;;;;;;;0.28;0.28;;;11.10;55.30;;;;;;5015592;28;20396;-84
2023/01/31 09:55:34;;;;;;;0.30;0.30;;;10.80;54.40;;;;;;5015710;28;20022;-86
2023/01/31 09:58:22;;;;;;;0.30;0.30;;;10.30;56.70;;;;;;5015440;28;20037;-88
2023/01/31 10:01:14;;;;;;;0.20;0.20;;;11.20;55.90;;;;;;5015445;28;20049;-88
2023/01/31 10:04:04;;;;;;;0.20;0.20;;;11.80;54.70;;;;;;5011781;28;20042;-86
2023/01/31 10:06:53;;;;;;;0.20;0.20;;;11.70;53.80;;;;;;4322066;28;10000841;-88
2023/01/31 10:09:32;;;;;;;0.20;0.20;;;11.50;54.80;;;;;;5048550;28;20033;-88
2023/01/31 10:12:21;;;;;;;0.20;0.20;;;11.70;54.50;;;;;;5015514;28;20018;-87
2023/01/31 10:14:51;;;;;;;0.20;0.20;;;11.50;54.40;;;;;;5048397;28;20022;-86
2023/01/31 10:17:30;;;;;;;0.28;0.28;;;11.80;54.50;;;;;;5047922;28;20400;-87
2023/01/31 10:20:08;;;;;;;0.20;0.20;;;12.10;54.30;;;;;;5015022;28;20069;-87
2023/01/31 10:22:40;;;;;;;0.20;0.20;;;12.60;53.40;;;;;;5047902;28;20048;-87
2023/01/31 10:25:24;;;;;;;0.28;0.28;;;12.60;53.20;;;;;;5014993;28;20087;-85
2023/01/31 10:28:05;;;;;;;0.30;0.30;;;12.10;52.30;;;;;;5014567;28;20061;-86
2023/01/31 10:30:59;;;;;;;0.20;0.20;;;11.70;53.30;;;;;;5014711;28;20030;-86
2023/01/31 10:33:42;;;;;;;0.25;0.25;;;11.70;53.80;;;;;;5047901;28;20092;-87
2023/01/31 10:36:20;;;;;;;0.20;0.20;;;11.30;53.80;;;;;;5014436;28;20042;-86
2023/01/31 10:39:17;;;;;;;0.28;0.28;;;11.30;54.50;;;;;;5014636;28;20511;-86
2023/01/31 10:41:55;;;;;;;0.35;0.35;;;11.50;53.40;;;;;;5049015;28;20468;-86
2023/01/31 10:44:39;;;;;;;0.30;0.30;;;11.60;53.70;;;;;;5047706;28;20026;-87
2023/01/31 10:47:14;;;;;;;0.20;0.20;;;12.00;53.30;;;;;;5047713;28;20030;-86
2023/01/31 10:49:45;;;;;;;0.25;0.25;;;12.40;52.20;;;;;;5014579;28;20040;-85
2023/01/31 10:52:27;;;;;;;0.30;0.30;;;12.00;52.20;;;;;;5014492;28;20030;-85
2023/01/31 10:55:14;;;;;;;0.30;0.30;;;11.50;52.90;;;;;;5014362;28;20026;-86
2023/01/31 10:57:40;;;;;;;0.40;0.40;;;11.20;53.30;;;;;;5047552;28;20037;-87
2023/01/31 11:00:11;;;;;;;0.30;0.30;;;11.80;53.40;;;;;;5013341;28;20053;-86
2023/01/31 11:02:38;;;;;;;0.30;0.30;;;12.30;50.70;;;;;;5013929;28;20034;-86
2023/01/31 11:05:04;;;;;;;0.10;0.10;;;12.60;50.60;;;;;;5014001;28;20030;-87
2023/01/31 11:07:30;;;;;;;0.20;0.20;;;12.70;50.80;;;;;;5014193;28;20040;-86
2023/01/31 11:09:57;;;;;;;0.30;0.30;;;12.60;50.00;;;;;;5014119;28;20380;-84
2023/01/31 11:13:03;;;;;;;0.30;0.30;;;11.90;50.60;;;;;;5014139;28;20026;-87
2023/01/31 11:15:34;;;;;;;0.25;0.25;;;11.50;52.10;;;;;;5014097;28;20026;-87
2023/01/31 11:18:01;;;;;;;0.35;0.35;;;12.10;52.00;;;;;;5013897;28;20037;-87
2023/01/31 11:20:31;;;;;;;0.40;0.40;;;12.30;50.60;;;;;;5014004;28;20392;-87
2023/01/31 11:22:59;;;;;;;0.30;0.30;;;11.90;51.10;;;;;;5014495;28;20437;-89
2023/01/31 11:25:27;;;;;;;0.30;0.30;;;10.80;51.10;;;;;;5014056;28;20109;-88
2023/01/31 11:27:56;;;;;;;0.20;0.20;;;10.60;51.70;;;;;;5013987;28;20025;-87
2023/01/31 11:30:30;;;;;;;0.30;0.30;;;10.50;51.50;;;;;;5013917;28;20160;-88
2023/01/31 11:32:57;;;;;;;0.25;0.25;;;10.60;51.80;;;;;;5013446;28;20033;-86
2023/01/31 11:35:26;;;;;;;0.25;0.25;;;10.90;51.50;;;;;;5013891;28;20044;-86
2023/01/31 11:38:19;;;;;;;0.20;0.20;;;10.80;50.50;;;;;;5013250;28;20504;-86
2023/01/31 11:40:44;;;;;;;0.30;0.30;;;11.00;51.80;;;;;;5013820;28;20388;-85
2023/01/31 11:43:13;;;;;;;0.25;0.25;;;10.90;50.50;;;;;;5013663;28;20030;-88
2023/01/31 11:45:44;;;;;;;0.25;0.25;;;10.60;51.50;;;;;;5046460;28;20022;-86
2023/01/31 11:48:21;;;;;;;;;;;10.40;51.00;;;;;;5014060;28;20030;-88
2023/01/31 11:50:56;;;;;;;0.30;0.30;;;10.30;51.20;;;;;;5013522;28;19912;-89
2023/01/31 11:53:26;;;;;;;0.30;0.30;;;10.20;51.30;;;;;;5013461;28;20045;-89
2023/01/31 11:55:55;;;;;;;0.30;0.30;;;9.80;51.20;;;;;;5013497;28;20022;-85
2023/01/31 11:58:26;;;;;;;0.35;0.35;;;9.30;51.80;;;;;;5013124;28;20389;-87
2023/01/31 12:00:51;;;;;;;0.40;0.40;;;9.20;52.50;;;;;;5013412;28;20080;-85
2023/01/31 12:03:18;;;;;;;0.20;0.20;;;9.50;52.00;;;;;;5046486;28;20037;-89
2023/01/31 12:05:49;;;;;;;0.30;0.30;;;9.90;51.30;;;;;;5013412;28;20076;-86
2023/01/31 12:08:39;;;;;;;0.30;0.30;;;10.00;51.30;;;;;;5013206;28;20029;-85
2023/01/31 12:11:18;;;;;;;0.20;0.20;;;10.30;50.80;;;;;;5013030;28;20022;-86
2023/01/31 12:13:51;;;;;;;0.20;0.20;;;10.60;50.10;;;;;;5046083;28;20033;-87
2023/01/31 12:16:21;;;;;;;0.28;0.28;;;10.70;50.40;;;;;;5013066;28;20178;-88
2023/01/31 12:19:02;;;;;;;0.23;0.23;;;11.20;49.90;;;;;;5013084;28;20030;-87
2023/01/31 12:21:42;;;;;;;0.20;0.20;;;11.20;49.40;;;;;;5013971;28;20034;-88
2023/01/31 12:24:11;;;;;;;;;;;10.90;49.70;;;;;;5046901;28;20429;-84
2023/01/31 12:26:46;;;;;;;0.30;0.30;;;10.90;50.10;;;;;;5012730;28;19905;-90
2023/01/31 12:29:30;;;;;;;0.20;0.20;;;10.50;50.50;;;;;;5013381;28;20114;-85
2023/01/31 12:32:05;;;;;;;0.20;0.20;;;10.20;50.70;;;;;;5045904;28;20121;-87
2023/01/31 12:35:03;;;;;;;0.20;0.20;;;10.30;51.40;;;;;;5045945;28;20037;-88
2023/01/31 12:38:05;;;;;;;0.20;0.20;;;10.80;51.80;;;;;;4995660;28;20054;-81
2023/01/31 12:40:39;;;;;;;0.20;0.20;;;11.20;49.90;;;;;;5028178;28;20038;-89
2023/01/31 12:43:25;;;;;;;0.30;0.30;;;11.10;50.30;;;;;;5028443;28;20026;-86
2023/01/31 12:46:10;;;;;;;0.20;0.20;;;11.10;50.10;;;;;;5028370;28;20030;-87
2023/01/31 12:48:44;;;;;;;0.30;0.30;;;11.10;50.90;;;;;;5028371;28;20476;-85
2023/01/31 12:51:38;;;;;;;0.20;0.20;;;11.10;50.40;;;;;;5011900;28;20034;-85
2023/01/31 12:54:14;;;;;;;0.30;0.30;;;10.70;52.00;;;;;;5028235;28;20053;-85
2023/01/31 12:56:54;;;;;;;0.30;0.30;;;10.40;52.30;;;;;;5028075;28;20038;-87
2023/01/31 12:59:35;;;;;;;0.20;0.20;;;10.50;52.70;;;;;;5028026;28;20105;-86
2023/01/31 13:02:06;;;;;;;;;;;10.90;52.80;;;;;;5014072;28;20413;-87
2023/01/31 13:04:57;;;;;;;0.20;0.20;;;11.00;52.10;;;;;;5028037;28;19905;-87
2023/01/31 13:07:34;;;;;;;0.30;0.30;;;10.80;51.70;;;;;;5028209;28;20034;-87
2023/01/31 13:10:05;;;;;;;0.30;0.30;;;10.60;52.40;;;;;;5028028;28;20038;-87
2023/01/31 13:12:34;;;;;;;0.28;0.28;;;10.70;51.80;;;;;;5030920;28;20117;-86
2023/01/31 13:15:03;;;;;;;0.20;0.20;;;10.20;52.70;;;;;;5012287;28;20108;-89
2023/01/31 13:17:31;;;;;;;0.30;0.30;;;10.10;53.50;;;;;;5012278;28;20037;-85
2023/01/31 13:20:05;;;;;;;0.22;0.22;;;10.20;53.50;;;;;;5012516;28;20571;-91